Time;durP1;ratioP1;P1;durP2;ratioP2;P2;SDS_P1;SDS_P2;PMS_P1;PMS_P2;Temp;Humidity;BMP_temperature;BMP_pressure;BME280_temperature;BME280_humidity;BME280_pressure;Samples;Min_cycle;Max_cycle;Signal;HPM_P1;HPM_P2
2023/02/23 00:01:28;;;;;;;56.72;33.05;;;8.70;99.90;;;;;;4966347;28;20515;-82
2023/02/23 00:03:58;;;;;;;53.72;31.98;;;8.70;99.90;;;;;;4965358;28;20046;-81
2023/02/23 00:06:26;;;;;;;54.72;31.52;;;8.70;99.90;;;;;;4966000;28;20030;-82
2023/02/23 00:08:52;;;;;;;53.22;31.80;;;8.70;99.90;;;;;;4982751;28;20047;-81
2023/02/23 00:11:19;;;;;;;60.58;34.28;;;8.70;99.90;;;;;;4982820;28;20031;-83
2023/02/23 00:13:48;;;;;;;59.10;34.03;;;8.70;99.90;;;;;;4998531;28;20034;-80
2023/02/23 00:16:17;;;;;;;57.05;32.47;;;8.70;99.90;;;;;;4981501;28;20026;-82
2023/02/23 00:18:47;;;;;;;58.60;32.20;;;8.70;99.90;;;;;;4965970;28;20043;-82
2023/02/23 00:21:21;;;;;;;57.55;33.20;;;8.70;99.90;;;;;;4983416;28;20035;-82
2023/02/23 00:24:09;;;;;;;56.53;32.58;;;8.70;99.90;;;;;;4997888;28;20046;-82
2023/02/23 00:26:36;;;;;;;53.63;32.00;;;8.60;99.90;;;;;;4983565;28;20166;-80
2023/02/23 00:29:06;;;;;;;57.72;33.53;;;8.60;99.90;;;;;;4983104;28;20039;-82
2023/02/23 00:31:37;;;;;;;60.67;33.15;;;8.60;99.90;;;;;;4966974;28;20369;-81
2023/02/23 00:34:03;;;;;;;60.33;33.63;;;8.60;99.90;;;;;;4982497;28;20026;-80
2023/02/23 00:36:34;;;;;;;57.05;31.23;;;8.60;99.90;;;;;;4965937;28;20480;-82
2023/02/23 00:39:19;;;;;;;57.90;32.30;;;8.60;99.90;;;;;;4966142;28;20092;-82
2023/02/23 00:41:47;;;;;;;53.35;30.20;;;8.60;99.90;;;;;;4983507;28;20137;-82
2023/02/23 00:44:16;;;;;;;53.10;31.88;;;8.60;99.90;;;;;;4965984;28;20053;-81
2023/02/23 00:46:43;;;;;;;53.60;31.80;;;8.60;99.90;;;;;;4982863;28;20038;-82
2023/02/23 00:49:11;;;;;;;48.70;29.05;;;8.70;99.90;;;;;;4982610;28;20050;-81
2023/02/23 00:51:38;;;;;;;51.50;28.88;;;8.70;99.90;;;;;;4997261;28;20038;-82
2023/02/23 00:54:03;;;;;;;55.40;30.92;;;8.70;99.90;;;;;;4981459;28;20027;-82
2023/02/23 00:56:29;;;;;;;52.55;30.45;;;8.70;99.90;;;;;;4982069;28;20041;-81
2023/02/23 00:58:55;;;;;;;54.13;31.10;;;8.70;99.90;;;;;;4981777;28;21224;-81
2023/02/23 01:01:21;;;;;;;50.65;30.65;;;8.70;99.90;;;;;;4991032;28;20031;-82
2023/02/23 01:03:47;;;;;;;53.78;30.98;;;8.70;99.90;;;;;;4981780;28;20178;-81
2023/02/23 01:06:14;;;;;;;49.63;29.23;;;8.70;99.90;;;;;;4981504;28;20436;-82
2023/02/23 01:08:44;;;;;;;50.67;29.88;;;8.70;99.90;;;;;;4980702;28;20041;-82
2023/02/23 01:11:14;;;;;;;49.05;28.75;;;8.70;99.90;;;;;;4981874;28;20253;-81
2023/02/23 01:13:43;;;;;;;52.45;29.65;;;8.70;99.90;;;;;;4975513;28;20492;-83
2023/02/23 01:16:11;;;;;;;51.45;29.70;;;8.70;99.90;;;;;;4981356;28;20031;-83
2023/02/23 01:18:38;;;;;;;53.58;29.95;;;8.70;99.90;;;;;;4981736;28;20046;-81
2023/02/23 01:21:12;;;;;;;62.30;34.33;;;8.70;99.90;;;;;;4980495;28;20051;-84
2023/02/23 01:23:38;;;;;;;60.40;35.85;;;8.60;99.90;;;;;;4982322;28;20119;-82
2023/02/23 01:26:03;;;;;;;56.72;32.30;;;8.60;99.90;;;;;;4975437;28;20042;-82
2023/02/23 01:28:29;;;;;;;60.13;34.33;;;8.60;99.90;;;;;;4976074;28;20035;-83
2023/02/23 01:30:54;;;;;;;58.75;34.50;;;8.60;99.90;;;;;;4982151;28;20046;-83
2023/02/23 01:33:20;;;;;;;59.47;34.65;;;8.60;99.90;;;;;;4973814;28;20042;-84
2023/02/23 01:35:56;;;;;;;59.38;33.72;;;8.60;99.90;;;;;;4975579;28;20062;-84
2023/02/23 01:38:22;;;;;;;60.17;34.22;;;8.60;99.90;;;;;;4976134;28;20046;-83
2023/02/23 01:40:47;;;;;;;53.38;30.52;;;8.60;99.90;;;;;;4976343;28;20041;-83
2023/02/23 01:43:16;;;;;;;55.97;33.15;;;8.60;99.90;;;;;;4981680;28;20031;-84
2023/02/23 01:45:43;;;;;;;61.05;33.45;;;8.60;99.90;;;;;;4983808;28;20240;-83
2023/02/23 01:48:16;;;;;;;58.63;34.20;;;8.60;99.90;;;;;;4980987;28;20118;-83
2023/02/23 01:50:44;;;;;;;60.83;35.33;;;8.60;99.90;;;;;;5000355;28;20487;-82
2023/02/23 01:53:10;;;;;;;55.92;33.13;;;8.60;99.90;;;;;;4999595;28;20050;-81
2023/02/23 01:55:37;;;;;;;64.30;35.90;;;8.60;99.90;;;;;;4991845;28;20033;-81
2023/02/23 01:58:18;;;;;;;59.03;34.20;;;8.60;99.90;;;;;;5001106;28;20038;-81
2023/02/23 02:00:50;;;;;;;59.85;34.72;;;8.50;99.90;;;;;;4990480;28;20534;-80
2023/02/23 02:03:25;;;;;;;60.85;34.22;;;8.50;99.90;;;;;;4988849;28;20034;-82
2023/02/23 02:05:52;;;;;;;63.90;35.42;;;8.50;99.90;;;;;;5000980;28;20042;-82
2023/02/23 02:08:19;;;;;;;59.72;34.55;;;8.50;99.90;;;;;;4989573;28;20061;-83
2023/02/23 02:10:45;;;;;;;58.60;34.28;;;8.50;99.90;;;;;;4987803;28;20080;-78
2023/02/23 02:13:17;;;;;;;53.55;31.55;;;8.50;99.90;;;;;;4988410;28;20030;-81
2023/02/23 02:16:27;;;;;;;55.15;31.10;;;8.50;99.90;;;;;;5000611;28;20113;-83
2023/02/23 02:19:17;;;;;;;51.22;30.05;;;8.60;99.90;;;;;;4986995;28;20054;-82
2023/02/23 02:22:14;;;;;;;49.85;29.63;;;8.60;99.90;;;;;;4998194;28;20085;-81
2023/02/23 02:24:48;;;;;;;52.03;29.42;;;8.60;99.90;;;;;;5000871;28;20061;-83
2023/02/23 02:27:28;;;;;;;46.40;27.92;;;8.60;99.90;;;;;;4981321;28;20496;-83
2023/02/23 02:30:23;;;;;;;50.42;27.83;;;8.60;99.90;;;;;;4987759;28;20194;-83
2023/02/23 02:33:25;;;;;;;52.10;29.05;;;8.60;99.90;;;;;;4954370;28;20057;-82
2023/02/23 02:36:38;;;;;;;49.08;28.73;;;8.60;99.90;;;;;;4996113;28;20033;-81
2023/02/23 02:39:35;;;;;;;50.55;28.52;;;8.50;99.90;;;;;;4908161;29;20059;-82
2023/02/23 02:42:21;;;;;;;51.08;29.35;;;8.50;99.90;;;;;;4896246;29;20036;-81
2023/02/23 02:44:53;;;;;;;58.75;32.50;;;8.50;99.90;;;;;;4991125;28;20046;-83
2023/02/23 02:47:27;;;;;;;57.85;33.22;;;8.50;99.90;;;;;;5004560;28;20038;-83
2023/02/23 02:50:09;;;;;;;59.78;33.28;;;8.50;99.90;;;;;;4988737;28;20046;-82
2023/02/23 02:52:58;;;;;;;56.92;32.30;;;8.50;99.90;;;;;;4991310;28;20042;-80
2023/02/23 02:55:27;;;;;;;52.97;30.05;;;8.50;99.90;;;;;;5002636;28;20117;-82
2023/02/23 02:57:57;;;;;;;48.80;28.73;;;8.50;99.90;;;;;;5002826;28;20046;-80
2023/02/23 04:18:57;;;;;;;48.58;27.50;;;8.30;99.90;;;;;;4985935;28;20082;-80
2023/02/23 04:21:22;;;;;;;52.92;29.13;;;8.30;99.90;;;;;;4970311;28;20081;-84
2023/02/23 04:23:48;;;;;;;44.45;26.15;;;8.30;99.90;;;;;;4984277;28;20120;-81
2023/02/23 04:26:14;;;;;;;49.65;28.20;;;8.30;99.90;;;;;;4986178;28;20034;-83
2023/02/23 04:28:39;;;;;;;50.53;28.52;;;8.30;99.90;;;;;;5000935;28;20481;-82
2023/02/23 04:31:05;;;;;;;46.28;28.58;;;8.30;99.90;;;;;;4985124;28;20042;-81
2023/02/23 04:33:30;;;;;;;48.50;29.70;;;8.30;99.90;;;;;;4971362;28;20026;-80
2023/02/23 04:35:56;;;;;;;48.38;28.10;;;8.30;99.90;;;;;;4985558;28;20046;-77
2023/02/23 04:38:22;;;;;;;45.70;27.13;;;8.30;99.90;;;;;;4970402;28;20050;-78
2023/02/23 04:40:48;;;;;;;53.28;28.55;;;8.30;99.90;;;;;;5001941;28;20030;-81
2023/02/23 04:43:14;;;;;;;50.03;28.05;;;8.20;99.90;;;;;;4983860;28;20480;-81
2023/02/23 04:45:40;;;;;;;46.58;27.55;;;8.30;99.90;;;;;;4972064;28;20034;-80
2023/02/23 04:48:06;;;;;;;51.30;29.73;;;8.30;99.90;;;;;;4984476;28;20038;-78
2023/02/23 04:50:32;;;;;;;52.85;28.98;;;8.30;99.90;;;;;;5001657;28;20436;-81
2023/02/23 04:52:57;;;;;;;53.47;30.25;;;8.30;99.90;;;;;;4998491;28;20508;-81
2023/02/23 04:55:24;;;;;;;51.72;28.85;;;8.20;99.90;;;;;;4986310;28;20038;-79
2023/02/23 04:57:51;;;;;;;46.53;28.52;;;8.30;99.90;;;;;;5002661;28;20056;-80
2023/02/23 05:00:17;;;;;;;52.75;28.77;;;8.30;99.90;;;;;;4986970;28;20030;-83
2023/02/23 05:02:44;;;;;;;50.42;29.58;;;8.30;99.90;;;;;;4989351;28;20065;-80
2023/02/23 05:05:10;;;;;;;51.70;29.70;;;8.20;99.90;;;;;;4987852;28;20061;-82
2023/02/23 05:07:36;;;;;;;49.42;28.25;;;8.20;99.90;;;;;;4997298;28;20065;-83
2023/02/23 05:10:04;;;;;;;49.78;27.98;;;8.20;99.90;;;;;;4986623;28;21016;-83
2023/02/23 05:12:30;;;;;;;46.17;26.50;;;8.20;99.90;;;;;;4986133;28;20041;-82
2023/02/23 05:14:56;;;;;;;53.60;29.30;;;8.20;99.90;;;;;;4997273;28;20041;-81
2023/02/23 05:17:22;;;;;;;47.60;27.10;;;8.20;99.90;;;;;;4996305;28;20038;-83
2023/02/23 05:19:48;;;;;;;46.17;27.13;;;8.20;99.90;;;;;;5011459;28;20042;-84
2023/02/23 05:22:14;;;;;;;48.78;28.08;;;8.20;99.90;;;;;;4985654;28;20026;-81
2023/02/23 05:24:40;;;;;;;46.35;27.60;;;8.20;99.90;;;;;;4998769;28;22395;-81
2023/02/23 05:27:07;;;;;;;50.28;28.42;;;8.20;99.90;;;;;;4995816;28;20110;-83
2023/02/23 05:29:33;;;;;;;50.20;28.02;;;8.10;99.90;;;;;;4995237;28;20038;-81
2023/02/23 05:31:58;;;;;;;47.35;26.65;;;8.10;99.90;;;;;;4997286;28;20080;-82
2023/02/23 05:34:24;;;;;;;50.15;27.55;;;8.10;99.90;;;;;;4995518;28;20401;-81
2023/02/23 05:36:49;;;;;;;49.60;27.83;;;8.10;99.90;;;;;;4984449;28;20037;-81
2023/02/23 05:39:15;;;;;;;50.10;28.75;;;8.10;99.90;;;;;;4983329;28;20103;-79
2023/02/23 05:41:41;;;;;;;51.47;29.25;;;8.10;99.90;;;;;;4996042;28;20488;-82
2023/02/23 05:44:06;;;;;;;47.35;27.67;;;8.10;99.90;;;;;;4993794;28;20496;-82
2023/02/23 05:46:32;;;;;;;49.38;27.38;;;8.10;99.90;;;;;;4995725;28;20036;-82
2023/02/23 05:48:59;;;;;;;46.55;26.20;;;8.10;99.90;;;;;;4993359;28;20108;-83
2023/02/23 05:51:26;;;;;;;48.35;26.75;;;8.10;99.90;;;;;;4976953;28;20049;-84
2023/02/23 05:53:52;;;;;;;50.55;27.35;;;8.10;99.90;;;;;;4994270;28;20035;-84
2023/02/23 05:56:19;;;;;;;45.25;26.27;;;8.10;99.90;;;;;;4983345;28;20626;-82
2023/02/23 05:58:50;;;;;;;44.90;24.88;;;8.10;99.90;;;;;;4983502;28;20053;-83
2023/02/23 06:01:16;;;;;;;45.10;24.90;;;8.10;99.90;;;;;;4995767;28;20164;-82
2023/02/23 06:03:43;;;;;;;48.17;26.83;;;8.10;99.90;;;;;;4983014;28;20043;-81
2023/02/23 06:06:10;;;;;;;49.47;26.73;;;8.10;99.90;;;;;;4993670;28;20030;-82
2023/02/23 06:08:36;;;;;;;50.80;27.83;;;8.10;99.90;;;;;;4995933;28;20056;-82
2023/02/23 06:11:02;;;;;;;47.28;26.00;;;8.10;99.90;;;;;;4996201;28;20129;-84
2023/02/23 06:13:28;;;;;;;52.53;27.58;;;8.10;99.90;;;;;;4983705;28;20116;-80
2023/02/23 06:15:54;;;;;;;49.20;27.80;;;8.00;99.90;;;;;;4995064;28;20663;-82
2023/02/23 06:18:21;;;;;;;49.88;27.58;;;8.00;99.90;;;;;;4996545;28;20050;-84
2023/02/23 06:20:46;;;;;;;47.78;26.15;;;8.00;99.90;;;;;;4995467;28;20115;-81
2023/02/23 06:23:14;;;;;;;54.13;30.40;;;8.00;99.90;;;;;;4980742;28;20129;-82
2023/02/23 06:25:40;;;;;;;52.13;28.30;;;8.00;99.90;;;;;;4981671;28;20034;-83
2023/02/23 06:28:07;;;;;;;50.95;28.95;;;8.00;99.90;;;;;;4980557;28;20057;-83
2023/02/23 06:30:33;;;;;;;50.47;27.02;;;8.00;99.90;;;;;;4980166;28;20584;-80
2023/02/23 06:32:59;;;;;;;47.85;26.60;;;8.00;99.90;;;;;;4996343;28;20100;-83
2023/02/23 06:35:26;;;;;;;48.72;26.75;;;8.00;99.90;;;;;;4984633;28;20030;-80
2023/02/23 06:37:52;;;;;;;48.78;27.33;;;8.00;99.90;;;;;;4997816;28;20519;-83
2023/02/23 06:40:18;;;;;;;49.47;27.58;;;8.00;99.90;;;;;;4985998;28;20455;-84
2023/02/23 06:42:44;;;;;;;50.50;27.60;;;8.00;99.90;;;;;;4997176;28;20044;-81
2023/02/23 06:45:10;;;;;;;47.35;26.63;;;8.00;99.90;;;;;;4982782;28;20045;-81
2023/02/23 06:47:36;;;;;;;51.08;26.25;;;8.00;99.90;;;;;;4984939;28;20559;-80
2023/02/23 06:50:02;;;;;;;49.03;27.42;;;8.00;99.90;;;;;;4996735;28;20054;-80
2023/02/23 06:52:28;;;;;;;47.47;25.45;;;8.00;99.90;;;;;;4985847;28;20449;-81
2023/02/23 06:54:54;;;;;;;44.05;24.02;;;8.00;99.90;;;;;;4986443;28;20141;-82
2023/02/23 06:57:20;;;;;;;42.97;24.50;;;8.00;99.90;;;;;;4987369;28;20376;-82
2023/02/23 06:59:46;;;;;;;45.97;25.83;;;8.00;99.90;;;;;;4986260;28;20408;-79
2023/02/23 07:02:12;;;;;;;45.83;24.88;;;8.00;99.90;;;;;;4995659;28;20064;-81
2023/02/23 07:04:38;;;;;;;46.22;25.17;;;8.00;99.90;;;;;;4996875;28;20034;-81
2023/02/23 07:07:04;;;;;;;48.97;26.15;;;8.00;99.90;;;;;;4986539;28;20084;-82
2023/02/23 07:09:29;;;;;;;49.33;26.38;;;8.00;99.90;;;;;;4998438;28;20038;-82
2023/02/23 07:11:55;;;;;;;49.65;26.63;;;8.00;99.90;;;;;;4997458;28;20049;-82
2023/02/23 07:14:21;;;;;;;52.08;27.77;;;8.00;99.90;;;;;;4985117;28;20041;-81
2023/02/23 07:16:46;;;;;;;53.95;28.30;;;8.00;99.90;;;;;;5011245;28;20026;-82
2023/02/23 07:19:12;;;;;;;50.67;27.13;;;8.00;99.90;;;;;;4996224;28;20069;-80
2023/02/23 07:21:37;;;;;;;54.30;27.58;;;8.00;99.90;;;;;;4985401;28;20042;-79
2023/02/23 07:24:04;;;;;;;46.35;25.17;;;8.00;99.90;;;;;;4985851;28;20388;-82
2023/02/23 07:26:32;;;;;;;47.13;25.40;;;8.00;99.90;;;;;;4985460;28;20101;-81
2023/02/23 07:28:58;;;;;;;46.75;25.90;;;8.00;99.90;;;;;;4984506;28;20038;-82
2023/02/23 07:31:25;;;;;;;47.17;24.75;;;8.00;99.90;;;;;;4996217;28;20533;-80
2023/02/23 07:33:54;;;;;;;45.15;25.05;;;8.00;99.90;;;;;;4995147;28;20428;-82
2023/02/23 07:36:21;;;;;;;45.25;24.92;;;8.00;99.90;;;;;;4984807;28;20030;-81
2023/02/23 07:38:46;;;;;;;47.13;26.27;;;8.00;99.90;;;;;;4984060;28;20049;-81
2023/02/23 07:41:12;;;;;;;48.55;26.60;;;8.00;99.90;;;;;;4984229;28;20045;-79
2023/02/23 07:43:38;;;;;;;49.65;25.85;;;8.00;99.90;;;;;;4983883;28;20049;-82
2023/02/23 07:46:04;;;;;;;51.33;26.08;;;8.00;99.90;;;;;;4993019;28;20556;-81
2023/02/23 07:48:30;;;;;;;44.95;25.55;;;8.00;99.90;;;;;;4983205;28;22361;-80
2023/02/23 07:50:56;;;;;;;45.85;24.77;;;8.00;99.90;;;;;;4984257;28;20046;-83
2023/02/23 07:53:22;;;;;;;48.65;25.88;;;8.00;99.90;;;;;;4996343;28;20041;-83
2023/02/23 07:55:58;;;;;;;47.30;25.40;;;8.00;99.90;;;;;;4984483;28;20030;-82
2023/02/23 07:58:24;;;;;;;42.22;23.60;;;8.10;99.90;;;;;;4984220;28;20050;-82
2023/02/23 08:00:49;;;;;;;44.63;24.48;;;8.10;99.90;;;;;;4984513;28;20499;-80
2023/02/23 08:03:15;;;;;;;45.63;25.05;;;8.10;99.90;;;;;;5011383;28;20045;-83
2023/02/23 08:05:43;;;;;;;42.58;22.55;;;8.10;99.90;;;;;;4995099;28;20038;-83
2023/02/23 08:08:09;;;;;;;43.35;25.00;;;8.10;99.90;;;;;;4981195;28;20506;-82
2023/02/23 08:10:36;;;;;;;46.10;25.10;;;8.10;99.90;;;;;;4994564;28;20030;-81
2023/02/23 08:13:01;;;;;;;44.92;24.48;;;8.10;99.90;;;;;;4995861;28;21009;-85
2023/02/23 08:15:27;;;;;;;44.45;24.48;;;8.10;99.90;;;;;;4982241;28;20030;-81
2023/02/23 08:17:52;;;;;;;43.50;24.30;;;8.10;99.90;;;;;;4994221;28;20049;-83
2023/02/23 08:20:18;;;;;;;46.05;24.40;;;8.10;99.90;;;;;;4981084;28;20050;-82
2023/02/23 08:22:43;;;;;;;48.85;25.40;;;8.20;99.90;;;;;;5011542;28;20038;-83
2023/02/23 08:25:09;;;;;;;42.90;23.67;;;8.20;99.90;;;;;;4977796;28;20105;-85
2023/02/23 08:27:36;;;;;;;39.58;21.65;;;8.20;99.90;;;;;;4994840;28;20456;-81
2023/02/23 08:30:04;;;;;;;39.80;21.80;;;8.30;99.90;;;;;;4972436;28;20276;-80
2023/02/23 08:32:33;;;;;;;41.97;23.50;;;8.30;99.90;;;;;;4982137;28;20120;-81
2023/02/23 08:35:01;;;;;;;41.28;23.13;;;8.30;99.90;;;;;;4966609;28;20026;-84
2023/02/23 08:37:28;;;;;;;41.83;23.52;;;8.40;99.90;;;;;;4980676;28;20715;-81
2023/02/23 08:39:54;;;;;;;42.00;22.60;;;8.40;99.90;;;;;;4994305;28;20045;-82
2023/02/23 08:42:19;;;;;;;39.85;22.30;;;8.40;99.90;;;;;;4981116;28;20034;-82
2023/02/23 08:44:45;;;;;;;43.25;24.13;;;8.50;99.90;;;;;;5005893;28;20048;-79
2023/02/23 08:47:11;;;;;;;44.42;23.20;;;8.50;99.90;;;;;;4992206;28;20050;-82
2023/02/23 08:49:36;;;;;;;48.03;25.00;;;8.50;99.90;;;;;;4983305;28;20046;-81
2023/02/23 08:52:02;;;;;;;43.72;23.25;;;8.50;99.90;;;;;;4960818;28;20525;-81
2023/02/23 08:54:27;;;;;;;51.88;25.38;;;8.60;99.90;;;;;;4960394;28;20041;-82
2023/02/23 08:56:56;;;;;;;50.10;25.80;;;8.60;99.90;;;;;;4964818;28;20038;-81
2023/02/23 08:59:23;;;;;;;48.28;26.13;;;8.60;99.90;;;;;;4972018;28;20038;-83
2023/02/23 09:01:49;;;;;;;48.65;25.83;;;8.60;99.90;;;;;;4964464;28;20037;-84
2023/02/23 09:04:14;;;;;;;50.45;26.00;;;8.60;99.90;;;;;;4980687;28;20042;-84
2023/02/23 09:06:40;;;;;;;45.65;24.65;;;8.60;99.90;;;;;;4963090;28;20030;-79
2023/02/23 09:09:05;;;;;;;48.13;24.85;;;8.60;99.90;;;;;;4980929;28;20062;-82
2023/02/23 09:11:31;;;;;;;47.10;26.05;;;8.70;99.90;;;;;;4964340;28;20038;-82
2023/02/23 09:13:57;;;;;;;49.63;26.63;;;8.60;99.90;;;;;;4981629;28;20097;-81
2023/02/23 09:16:23;;;;;;;49.72;26.15;;;8.60;99.90;;;;;;4978084;28;20032;-81
2023/02/23 09:18:49;;;;;;;49.30;26.75;;;8.60;99.90;;;;;;4980631;28;20047;-84
2023/02/23 09:21:20;;;;;;;48.55;25.67;;;8.60;99.90;;;;;;4980537;28;20108;-83
2023/02/23 09:23:48;;;;;;;49.47;26.33;;;8.70;99.90;;;;;;4963454;28;20030;-82
2023/02/23 09:26:16;;;;;;;54.50;27.77;;;8.60;99.90;;;;;;4965456;28;20122;-80
2023/02/23 09:28:42;;;;;;;49.35;25.55;;;8.60;99.90;;;;;;4981712;28;20553;-82
2023/02/23 09:31:09;;;;;;;51.25;27.48;;;8.60;99.90;;;;;;4980606;28;20042;-83
2023/02/23 09:33:35;;;;;;;52.85;26.98;;;8.70;99.90;;;;;;4966889;28;20195;-82
2023/02/23 09:36:23;;;;;;;51.47;28.45;;;8.60;99.90;;;;;;4996780;28;20050;-84
2023/02/23 09:38:54;;;;;;;54.42;29.63;;;8.70;99.90;;;;;;4963319;28;20061;-84
2023/02/23 09:41:49;;;;;;;57.95;29.25;;;8.70;99.90;;;;;;4981875;28;20137;-83
2023/02/23 09:45:02;;;;;;;55.13;30.85;;;8.70;99.90;;;;;;4963131;28;20046;-78
2023/02/23 09:48:03;;;;;;;54.50;27.63;;;8.70;99.90;;;;;;4971179;28;20042;-81
2023/02/23 09:50:33;;;;;;;52.47;27.83;;;8.70;99.90;;;;;;4907561;29;20284;-81
2023/02/23 09:53:09;;;;;;;47.95;25.30;;;8.70;99.90;;;;;;4955274;28;20590;-80
2023/02/23 09:55:38;;;;;;;46.72;25.60;;;8.80;99.90;;;;;;4966966;28;20050;-82
2023/02/23 09:58:12;;;;;;;41.10;23.67;;;8.80;99.90;;;;;;4967917;28;20069;-84
2023/02/23 10:00:46;;;;;;;48.60;23.85;;;8.80;99.90;;;;;;4963994;28;20046;-84
2023/02/23 10:03:26;;;;;;;60.33;30.77;;;8.80;99.90;;;;;;4977348;28;20623;-84
2023/02/23 10:06:00;;;;;;;53.90;28.17;;;8.80;99.90;;;;;;4981342;28;20034;-83
2023/02/23 10:08:50;;;;;;;55.25;27.92;;;8.80;99.90;;;;;;4983790;28;20026;-81
2023/02/23 10:11:21;;;;;;;50.72;26.75;;;8.80;99.90;;;;;;4982987;28;20050;-82
2023/02/23 10:14:16;;;;;;;48.85;26.02;;;8.80;99.90;;;;;;4969247;28;20109;-79
2023/02/23 10:16:54;;;;;;;47.45;24.77;;;8.80;99.90;;;;;;4983366;28;20068;-81
2023/02/23 10:19:40;;;;;;;46.85;24.10;;;8.80;99.90;;;;;;4982425;28;20500;-80
2023/02/23 10:22:07;;;;;;;52.45;26.58;;;8.80;99.90;;;;;;4970298;28;20047;-81
2023/02/23 10:24:43;;;;;;;49.72;25.70;;;8.80;99.90;;;;;;4970990;28;20038;-82
2023/02/23 10:27:15;;;;;;;46.03;24.23;;;8.70;99.90;;;;;;4969295;28;20172;-81
2023/02/23 10:29:53;;;;;;;48.17;26.23;;;8.80;99.90;;;;;;4966936;28;20046;-81
2023/02/23 10:32:24;;;;;;;46.63;25.30;;;8.80;99.90;;;;;;4969719;28;20046;-82
2023/02/23 10:34:55;;;;;;;51.00;26.70;;;8.80;99.90;;;;;;4969906;28;20046;-79
2023/02/23 10:37:21;;;;;;;46.67;24.00;;;8.80;99.90;;;;;;4982685;28;20058;-84
2023/02/23 10:39:50;;;;;;;49.78;25.45;;;8.90;99.90;;;;;;4985011;28;20496;-84
2023/02/23 10:42:22;;;;;;;49.83;25.20;;;8.90;99.90;;;;;;4968816;28;20089;-82
2023/02/23 10:44:48;;;;;;;48.30;26.00;;;8.90;99.90;;;;;;4980617;28;20070;-82
2023/02/23 10:47:30;;;;;;;47.30;24.77;;;8.90;99.90;;;;;;4981246;28;20034;-81
2023/02/23 10:49:56;;;;;;;45.80;24.17;;;9.00;99.90;;;;;;4975354;28;20049;-80
2023/02/23 10:52:44;;;;;;;46.38;24.58;;;8.90;99.90;;;;;;4992668;28;20137;-82
2023/02/23 10:55:30;;;;;;;44.97;24.40;;;9.00;99.90;;;;;;4983354;28;20034;-81
2023/02/23 10:58:16;;;;;;;42.13;23.23;;;8.90;99.90;;;;;;4977542;28;20034;-81
2023/02/23 11:00:57;;;;;;;43.55;23.42;;;8.90;99.90;;;;;;4980053;28;20559;-83
2023/02/23 11:03:49;;;;;;;48.55;25.48;;;8.90;99.90;;;;;;4977749;28;20039;-80
2023/02/23 11:06:32;;;;;;;49.10;24.77;;;8.90;99.90;;;;;;4978451;28;20034;-80
2023/02/23 11:08:57;;;;;;;44.80;24.45;;;9.00;99.90;;;;;;4998617;28;20030;-82
2023/02/23 11:11:27;;;;;;;48.92;24.83;;;9.00;99.90;;;;;;4978685;28;20097;-82
2023/02/23 11:13:55;;;;;;;54.17;25.23;;;9.00;99.90;;;;;;4977285;28;20584;-81
2023/02/23 11:16:27;;;;;;;46.70;25.05;;;9.00;99.90;;;;;;4982965;28;20072;-84
2023/02/23 11:19:00;;;;;;;47.45;25.63;;;9.00;99.90;;;;;;4982499;28;20461;-82
2023/02/23 11:21:32;;;;;;;46.08;24.42;;;9.00;99.90;;;;;;4982410;28;20448;-82
2023/02/23 11:24:13;;;;;;;42.53;22.67;;;9.10;99.90;;;;;;4982605;28;20053;-82
2023/02/23 11:26:41;;;;;;;41.97;21.55;;;9.10;99.90;;;;;;4982427;28;20034;-80
2023/02/23 11:29:34;;;;;;;47.97;24.33;;;9.10;99.90;;;;;;4982758;28;20046;-79
2023/02/23 11:32:07;;;;;;;41.42;21.73;;;9.20;99.90;;;;;;4976857;28;20042;-82
2023/02/23 11:34:34;;;;;;;45.05;22.67;;;9.20;99.90;;;;;;4981404;28;20043;-81
2023/02/23 11:37:21;;;;;;;41.97;22.33;;;9.20;99.90;;;;;;4981722;28;20500;-81
2023/02/23 11:39:59;;;;;;;41.80;22.23;;;9.20;99.90;;;;;;4982892;28;20501;-83
2023/02/23 11:42:26;;;;;;;48.13;23.55;;;9.30;99.90;;;;;;4982212;28;20034;-79
2023/02/23 11:45:06;;;;;;;44.17;22.50;;;9.20;99.90;;;;;;4976029;28;20042;-83
2023/02/23 11:47:37;;;;;;;40.47;21.55;;;9.30;99.90;;;;;;4976673;28;20038;-83
2023/02/23 11:50:03;;;;;;;41.53;22.00;;;9.20;99.90;;;;;;4990519;28;20067;-83
2023/02/23 11:52:30;;;;;;;42.40;21.30;;;9.20;99.90;;;;;;4987963;28;20030;-82
2023/02/23 11:54:57;;;;;;;45.22;23.15;;;9.20;99.90;;;;;;5010594;28;20046;-82
2023/02/23 11:57:27;;;;;;;41.30;20.02;;;9.20;99.90;;;;;;4997293;28;20026;-82
2023/02/23 11:59:53;;;;;;;40.53;21.20;;;9.20;99.90;;;;;;4995545;28;20054;-83
2023/02/23 12:02:27;;;;;;;41.38;20.35;;;9.20;99.90;;;;;;4996863;28;20108;-85
2023/02/23 12:05:07;;;;;;;43.80;21.67;;;9.20;99.90;;;;;;4994805;28;20046;-79
2023/02/23 12:07:45;;;;;;;44.10;21.77;;;9.30;99.90;;;;;;4997359;28;20034;-83
2023/02/23 12:10:52;;;;;;;48.80;21.90;;;9.30;99.90;;;;;;4996990;28;20496;-83
2023/02/23 12:13:27;;;;;;;41.00;21.50;;;9.30;99.90;;;;;;4974055;28;20037;-81
2023/02/23 12:16:04;;;;;;;43.63;21.75;;;9.30;99.90;;;;;;4996115;28;20033;-82
2023/02/23 12:18:46;;;;;;;40.28;20.08;;;9.30;99.90;;;;;;5009448;28;20225;-82
2023/02/23 12:21:22;;;;;;;37.30;19.35;;;9.40;99.90;;;;;;4999555;28;20066;-81
2023/02/23 12:23:49;;;;;;;36.53;19.48;;;9.40;99.90;;;;;;4995458;28;20437;-85
2023/02/23 12:26:20;;;;;;;41.33;21.13;;;9.40;99.90;;;;;;4994941;28;20038;-81
2023/02/23 12:28:53;;;;;;;37.40;19.17;;;9.40;99.90;;;;;;4993876;28;20121;-83
2023/02/23 12:31:33;;;;;;;35.42;17.60;;;9.40;99.90;;;;;;4995292;28;20137;-78
2023/02/23 12:34:24;;;;;;;35.88;18.30;;;9.40;99.90;;;;;;4994052;28;20129;-81
2023/02/23 12:36:58;;;;;;;36.50;18.80;;;9.40;99.90;;;;;;4993768;28;20080;-82
2023/02/23 12:39:34;;;;;;;32.63;18.20;;;9.40;99.90;;;;;;4995065;28;20405;-82
2023/02/23 12:42:16;;;;;;;36.33;18.45;;;9.40;99.90;;;;;;4983906;28;20038;-81
2023/02/23 12:45:20;;;;;;;38.30;19.30;;;9.40;99.90;;;;;;4983802;28;20050;-82
2023/02/23 12:48:01;;;;;;;36.08;18.25;;;9.40;99.90;;;;;;4978491;28;20501;-83
2023/02/23 12:50:53;;;;;;;33.92;16.73;;;9.30;99.90;;;;;;4992090;28;20100;-80
2023/02/23 12:53:30;;;;;;;29.40;16.17;;;9.30;99.90;;;;;;4982306;28;20485;-83
2023/02/23 12:56:05;;;;;;;31.38;16.40;;;9.30;99.90;;;;;;4994040;28;20073;-82
2023/02/23 12:58:58;;;;;;;27.63;15.07;;;9.30;99.90;;;;;;4993890;28;20077;-81
2023/02/23 13:01:27;;;;;;;27.40;14.63;;;9.30;99.90;;;;;;4993859;28;20109;-83
2023/02/23 13:04:11;;;;;;;34.10;15.75;;;9.20;99.90;;;;;;4982237;28;20034;-85
2023/02/23 13:07:19;;;;;;;25.73;13.52;;;9.20;99.90;;;;;;4991575;28;20128;-79
2023/02/23 13:09:56;;;;;;;25.35;12.93;;;9.10;99.90;;;;;;4994747;28;20042;-82
2023/02/23 13:12:55;;;;;;;22.58;11.35;;;9.10;99.90;;;;;;4993606;28;20096;-79
2023/02/23 13:15:38;;;;;;;20.95;11.27;;;9.20;99.90;;;;;;4995788;28;20416;-84
2023/02/23 13:18:23;;;;;;;20.57;10.97;;;9.20;99.90;;;;;;4995328;28;20062;-85
2023/02/23 13:21:07;;;;;;;18.15;9.82;;;9.20;99.90;;;;;;4993861;28;20711;-80
2023/02/23 13:23:59;;;;;;;18.42;10.90;;;9.10;99.90;;;;;;4995221;28;20589;-79
2023/02/23 13:26:45;;;;;;;20.05;10.95;;;9.20;99.90;;;;;;4993855;28;20129;-85
2023/02/23 13:29:18;;;;;;;17.02;9.60;;;9.10;99.90;;;;;;4983716;28;20117;-85
2023/02/23 13:31:45;;;;;;;19.35;11.02;;;9.10;99.90;;;;;;4987214;28;20045;-83
2023/02/23 13:34:25;;;;;;;24.45;10.38;;;9.10;99.90;;;;;;4982223;28;20610;-81
2023/02/23 13:36:51;;;;;;;18.35;9.93;;;9.00;99.90;;;;;;4994862;28;20124;-83
2023/02/23 13:39:37;;;;;;;17.85;9.07;;;9.00;99.90;;;;;;4994504;28;20045;-82
2023/02/23 13:42:25;;;;;;;17.95;9.10;;;9.00;99.90;;;;;;4997576;28;20121;-79
2023/02/23 13:45:27;;;;;;;16.63;8.23;;;9.10;99.90;;;;;;4999652;28;20034;-78
2023/02/23 13:48:01;;;;;;;17.15;8.73;;;9.10;99.90;;;;;;4985986;28;20038;-83
2023/02/23 13:50:45;;;;;;;16.27;8.07;;;9.10;99.90;;;;;;4998100;28;20687;-80
2023/02/23 13:53:26;;;;;;;16.55;9.00;;;9.10;99.90;;;;;;4998939;28;20118;-84
2023/02/23 13:55:53;;;;;;;17.90;8.30;;;9.20;99.90;;;;;;4998791;28;20877;-85
2023/02/23 13:58:28;;;;;;;14.40;7.78;;;9.20;99.90;;;;;;4998549;28;20038;-82
2023/02/23 14:01:05;;;;;;;15.40;8.15;;;9.30;99.90;;;;;;4998841;28;20524;-82
2023/02/23 14:03:34;;;;;;;13.57;7.18;;;9.30;99.90;;;;;;4997132;28;20117;-85
2023/02/23 14:06:00;;;;;;;11.48;6.72;;;9.40;99.90;;;;;;4996610;28;20030;-84
2023/02/23 14:08:36;;;;;;;14.93;7.65;;;9.60;99.90;;;;;;4983423;28;20130;-84
2023/02/23 14:11:02;;;;;;;13.55;7.90;;;9.70;99.90;;;;;;4995660;28;20137;-82
2023/02/23 14:13:31;;;;;;;15.45;8.02;;;9.80;99.90;;;;;;4984777;28;20042;-83
2023/02/23 14:16:16;;;;;;;13.43;7.60;;;9.80;99.90;;;;;;4997193;28;20039;-82
2023/02/23 14:18:50;;;;;;;13.90;7.63;;;9.80;99.90;;;;;;4997902;28;20395;-85
2023/02/23 14:21:42;;;;;;;13.50;7.35;;;9.80;99.90;;;;;;4986489;28;20045;-84